Flight Track Log - Related Links

Times and Time Zones

All times are in EDT time to prevent confusion due to time zone crossing. See the UAL1494 flight status page for this flight to view local times or setup timezone preferences in your user account.

Time Position Orientation Groundspeed Altitude Reporting Facility
EDT Latitude Longitude Course Direction KTS MPH feet Rate Location/Type
Sun 02:34:12 PM 29.9886 -95.3622 1000° North 157 181 700  Level FlightAware ADS-B
Sun 02:34:16 PM 29.9904 -95.3641 318° Northwest 156 180 800 1,714 Climbing FlightAware ADS-B
Sun 02:34:19 PM 29.9919 -95.3662 310° West 161 185 900 2,000 Climbing FlightAware ADS-B
Sun 02:34:22 PM 29.9930 -95.3685 299° West 165 190 1,000 2,000 Climbing FlightAware ADS-B
Sun 02:34:25 PM 29.9939 -95.3714 290° West 170 196 1,100 857 Climbing FlightAware ADS-B
Sun 02:34:29 PM 29.9944 -95.3744 281° West 176 203 1,100 750 Level FlightAware ADS-B
Sun 02:34:33 PM 29.9944 -95.3788 270° West 185 213 1,200 1,500 Climbing FlightAware ADS-B
Sun 02:34:37 PM 29.9938 -95.3826 260° West 193 222 1,300 857 Climbing FlightAware ADS-B
Sun 02:34:40 PM 29.9929 -95.3859 253° West 200 230 1,300 1,000 Level FlightAware ADS-B
Sun 02:34:43 PM 29.9915 -95.3890 242° Southwest 207 238 1,400 1,000 Climbing FlightAware ADS-B
Sun 02:34:46 PM 29.9896 -95.3920 234° Southwest 217 250 1,400 857 Level FlightAware ADS-B
Sun 02:34:50 PM 29.9869 -95.3947 221° Southwest 224 258 1,500 857 Climbing FlightAware ADS-B
Sun 02:34:53 PM 29.9842 -95.3968 214° Southwest 230 265 1,500 1,500 Level FlightAware ADS-B
Sun 02:34:58 PM 29.9793 -95.3992 203° Southwest 238 274 1,700 2,250 Climbing FlightAware ADS-B
Sun 02:35:01 PM 29.9759 -95.4001 193° South 239 275 1,800 3,000 Climbing FlightAware ADS-B
Sun 02:35:06 PM 29.9702 -95.4005 183° South 235 270 2,100 3,750 Climbing FlightAware ADS-B
Sun 02:35:09 PM 29.9669 -95.4003 177° South 236 272 2,300 3,000 Climbing FlightAware ADS-B
Sun 02:35:14 PM 29.9617 -95.3992 170° South 241 277 2,500 2,400 Climbing FlightAware ADS-B
Sun 02:35:19 PM 29.9560 -95.3969 161° South 245 282 2,700 2,250 Climbing FlightAware ADS-B
Sun 02:35:22 PM 29.9527 -95.3950 153° Southeast 248 285 2,800 2,667 Climbing FlightAware ADS-B
Sun 02:35:28 PM 29.9472 -95.3904 144° Southeast 248 285 3,100 2,400 Climbing FlightAware ADS-B
Sun 02:35:32 PM 29.9439 -95.3870 138° Southeast 246 283 3,200 2,182 Climbing FlightAware ADS-B
Sun 02:35:39 PM 29.9384 -95.3801 133° Southeast 251 289 3,500 1,875 Climbing FlightAware ADS-B
Sun 02:35:48 PM 29.9317 -95.3711 131° Southeast 263 303 3,700 828 Climbing FlightAware ADS-B
Sun 02:36:08 PM 29.9145 -95.3476 130° Southeast 282 325 3,900 167 Climbing FlightAware ADS-B
Sun 02:36:24 PM 29.9014 -95.3295 130° Southeast 285 328 3,800 -194 Descending FlightAware ADS-B
Sun 02:36:39 PM 29.8886 -95.3117 130° Southeast 285 328 3,800  Level FlightAware ADS-B
Sun 02:36:54 PM 29.8757 -95.2940 130° Southeast 283 326 3,800  Level FlightAware ADS-B
Sun 02:36:57 PM 29.8716 -95.2883 130° Southeast 283 326 3,800  Level FlightAware ADS-B
Sun 02:37:10 PM 29.8626 -95.2757 130° Southeast 283 326 3,800  Level FlightAware ADS-B
Sun 02:37:17 PM 29.8526 -95.2620 130° Southeast 281 323 3,800  Level FlightAware ADS-B
Sun 02:37:26 PM 29.8498 -95.2581 129° Southeast 281 323 3,800  Level FlightAware ADS-B
Sun 02:37:41 PM 29.8366 -95.2400 130° Southeast 280 322 3,800  Level FlightAware ADS-B
Sun 02:37:56 PM 29.8240 -95.2227 130° Southeast 280 322 3,800 353 Level FlightAware ADS-B
Sun 02:37:58 PM 29.8197 -95.2168 130° Southeast 280 322 3,900 800 Climbing FlightAware ADS-B
Sun 02:38:11 PM 29.8114 -95.2054 130° Southeast 282 325 4,000 1,500 Climbing FlightAware ADS-B
Sun 02:38:18 PM 29.8021 -95.1922 129° Southeast 281 323 4,400 2,500 Climbing FlightAware ADS-B
Sun 02:38:23 PM 29.8016 -95.1915 130° Southeast 281 323 4,500 2,286 Climbing FlightAware ADS-B
Sun 02:38:39 PM 29.7888 -95.1728 128° Southeast 287 330 5,200 2,625 Climbing FlightAware ADS-B
Sun 02:38:55 PM 29.7758 -95.1525 126° Southeast 296 341 5,900 3,474 Climbing FlightAware ADS-B
Sun 02:38:58 PM 29.7701 -95.1430 125° Southeast 297 342 6,300 3,000 Climbing FlightAware ADS-B
Sun 02:39:11 PM 29.7636 -95.1319 124° Southeast 299 344 6,700 3,474 Climbing FlightAware ADS-B
Sun 02:39:17 PM 29.7560 -95.1189 124° Southeast 301 346 7,400 3,375 Climbing FlightAware ADS-B
Sun 02:39:27 PM 29.7515 -95.1111 124° Southeast 301 346 7,600 2,286 Climbing FlightAware ADS-B
Sun 02:39:38 PM 29.7432 -95.0966 123° Southeast 301 346 8,200 3,429 Climbing FlightAware ADS-B
Sun 02:39:41 PM 29.7399 -95.0915 127° Southeast 299 344 8,400 3,000 Climbing FlightAware ADS-B
Sun 02:39:46 PM 29.7359 -95.0864 132° Southeast 300 345 8,600 3,000 Climbing FlightAware ADS-B
Sun 02:39:49 PM 29.7326 -95.0829 137° Southeast 300 345 8,800 3,000 Climbing FlightAware ADS-B
Sun 02:39:52 PM 29.7292 -95.0798 142° Southeast 301 346 8,900 2,250 Climbing FlightAware ADS-B
Sun 02:39:57 PM 29.7237 -95.0757 147° Southeast 301 346 9,100 3,000 Climbing FlightAware ADS-B
Sun 02:40:00 PM 29.7195 -95.0729 150° Southeast 302 348 9,300 3,000 Climbing FlightAware ADS-B
Sun 02:40:03 PM 29.7154 -95.0707 155° Southeast 302 348 9,400 2,250 Climbing FlightAware ADS-B
Sun 02:40:08 PM 29.7093 -95.0679 158° South 303 349 9,600 2,880 Climbing FlightAware ADS-B
Sun 02:40:28 PM 29.6769 -95.0541 160° South 316 364 10,600 2,323 Climbing FlightAware ADS-B
Sun 02:40:39 PM 29.6681 -95.0502 159° South 319 367 10,800 1,200 Climbing FlightAware ADS-B
Sun 02:40:58 PM 29.6330 -95.0343 159° South 351 404 11,200 1,161 Climbing FlightAware ADS-B
Sun 02:41:10 PM 29.6221 -95.0294 159° South 360 414 11,400 2,400 Climbing FlightAware ADS-B
Sun 02:41:28 PM 29.5866 -95.0129 158° South 368 423 12,400 2,516 Climbing FlightAware ADS-B
Sun 02:41:41 PM 29.5724 -95.0062 158° South 371 427 12,700 2,870 Climbing FlightAware ADS-B
Sun 02:42:14 PM 29.5214 -94.9827 158° South 369 425 14,600 3,143 Climbing FlightAware ADS-B
Sun 02:42:44 PM 29.4745 -94.9612 158° South 365 420 16,000 2,727 Climbing FlightAware ADS-B
Sun 02:42:58 PM 29.4523 -94.9497 156° South 372 428 16,600 2,526 Climbing FlightAware ADS-B
Sun 02:43:03 PM 29.4444 -94.9440 148° Southeast 376 433 16,800 2,118 Climbing FlightAware ADS-B
Sun 02:43:15 PM 29.4281 -94.9288 141° Southeast 385 443 17,200 2,348 Climbing FlightAware ADS-B
Sun 02:43:49 PM 29.3883 -94.8761 131° Southeast 392 451 18,600 2,344 Climbing FlightAware ADS-B
Sun 02:44:19 PM 29.3519 -94.8274 131° Southeast 395 455 19,700 1,970 Climbing FlightAware ADS-B
Sun 02:44:56 PM 29.3074 -94.7677 131° Southeast 403 464 20,800 1,765 Climbing FlightAware ADS-B
Sun 02:45:27 PM 29.2705 -94.7169 130° Southeast 412 474 21,700 1,781 Climbing FlightAware ADS-B
Sun 02:46:00 PM 29.2293 -94.6605 130° Southeast 419 482 22,700 1,818 Climbing FlightAware ADS-B
Sun 02:46:33 PM 29.1881 -94.6042 130° Southeast 423 487 23,700 1,688 Climbing FlightAware ADS-B
Sun 02:47:04 PM 29.1486 -94.5504 130° Southeast 427 491 24,500 1,459 Climbing FlightAware ADS-B
Sun 02:47:47 PM 29.0934 -94.4754 130° Southeast 433 498 25,500 1,373 Climbing FlightAware ADS-B
Sun 02:48:27 PM 29.0409 -94.4043 130° Southeast 441 507 26,400 1,378 Climbing FlightAware ADS-B
Sun 02:49:01 PM 28.9947 -94.3417 130° Southeast 451 519 27,200 1,343 Climbing FlightAware ADS-B
Sun 02:49:34 PM 28.9506 -94.2820 130° Southeast 456 525 27,900 1,125 Climbing FlightAware ADS-B
Sun 02:50:05 PM 28.9081 -94.2246 130° Southeast 464 534 28,400 984 Climbing FlightAware ADS-B
Sun 02:50:35 PM 28.8654 -94.1671 130° Southeast 473 544 28,900 923 Climbing FlightAware ADS-B
Sun 02:51:10 PM 28.8157 -94.1001 130° Southeast 483 556 29,400 909 Climbing FlightAware ADS-B
Sun 02:51:41 PM 28.7709 -94.0397 130° Southeast 490 564 29,900 1,065 Climbing FlightAware ADS-B
Sun 02:52:12 PM 28.7259 -93.9792 130° Southeast 492 566 30,500 1,391 Climbing FlightAware ADS-B
Sun 02:52:50 PM 28.6689 -93.9027 130° Southeast 491 565 31,500 1,521 Climbing FlightAware ADS-B
Sun 02:53:23 PM 28.6214 -93.8391 130° Southeast 487 560 32,300 1,315 Climbing FlightAware ADS-B
Sun 02:54:03 PM 28.5629 -93.7609 130° Southeast 487 560 33,100 1,045 Climbing FlightAware ADS-B
Sun 02:55:58 PM 28.3951 -93.5375 130° Southeast 487 560 35,000 750 Climbing FlightAware ADS-B
Sun 02:56:35 PM 28.3415 -93.4665 131° Southeast 490 564 35,000  Level FlightAware ADS-B
Sun 02:57:11 PM 28.2880 -93.3955 131° Southeast 492 566 35,000  Level FlightAware ADS-B
Sun 02:57:45 PM 28.2369 -93.3280 131° Southeast 494 568 35,000  Level FlightAware ADS-B
Sun 02:58:57 PM 28.1308 -93.1883 131° Southeast 495 570 35,000  Level FlightAware ADS-B
Sun 03:00:01 PM 28.0494 -93.0814 131° Southeast 494 568 35,000  Level Houston Center
Sun 03:01:03 PM 27.9600 -92.9633 131° Southeast 495 570 35,000  Level Houston Center
Sun 03:02:05 PM 27.8525 -92.8225 131° Southeast 494 568 35,000 -48 Level Houston Center
Sun 03:03:07 PM 27.7642 -92.7072 131° Southeast 489 563 34,900  Descending Houston Center
Sun 03:04:09 PM 27.6756 -92.5931 131° Southeast 487 560 35,000 48 Climbing Houston Center
Sun 03:05:12 PM 27.5867 -92.4800 132° Southeast 483 556 35,000 -48 Level Houston Center
Sun 03:06:14 PM 27.4994 -92.3642 130° Southeast 484 557 34,900  Descending Houston Center
Sun 03:07:16 PM 27.4108 -92.2531 132° Southeast 481 554 35,000 48 Climbing Houston Center
Sun 03:08:18 PM 27.3053 -92.1172 131° Southeast 480 552 35,000  Level Houston Center
Sun 03:09:20 PM 27.2178 -92.0036 131° Southeast 481 554 35,000  Level Houston Center
Sun 03:10:22 PM 27.1169 -91.9053 139° Southeast 484 557 35,000 -48 Level Houston Center
Sun 03:11:24 PM 27.0100 -91.8161 143° Southeast 480 552 34,900  Descending Houston Center
Sun 03:12:26 PM 26.9014 -91.7283 144° Southeast 480 552 35,000  Climbing Houston Center
Sun 03:13:28 PM 26.7814 -91.6344 145° Southeast 482 555 34,900  Descending Houston Center
Sun 03:15:00 PM 26.6332 -91.5135 144° Southeast  Level FlightAware Approximate
Sun 03:22:00 PM 25.9520 -90.9703 145° Southeast  Level FlightAware Approximate
Sun 03:23:00 PM 25.8542 -90.8938 145° Southeast  Level FlightAware Approximate
Sun 03:24:00 PM 25.7564 -90.8174 145° Southeast  Level FlightAware Approximate
Sun 03:25:00 PM 25.6585 -90.7411 145° Southeast  Level FlightAware Approximate
Sun 03:26:00 PM 25.5606 -90.6650 145° Southeast  Level FlightAware Approximate
Sun 03:27:00 PM 25.4627 -90.5890 145° Southeast  Level FlightAware Approximate
Sun 03:28:00 PM 25.3647 -90.5131 145° Southeast  Level FlightAware Approximate
Sun 03:29:00 PM 25.2666 -90.4373 145° Southeast  Level FlightAware Approximate
Sun 03:30:00 PM 25.1685 -90.3617 145° Southeast  Level FlightAware Approximate
Sun 03:31:00 PM 25.0704 -90.2861 145° Southeast  Level FlightAware Approximate
Sun 03:32:00 PM 24.9722 -90.2107 145° Southeast  Level FlightAware Approximate
Sun 03:33:00 PM 24.8741 -90.1354 145° Southeast  Level FlightAware Approximate
Sun 03:34:00 PM 24.7758 -90.0603 145° Southeast  Level FlightAware Approximate
Sun 03:35:00 PM 24.6776 -89.9852 145° Southeast  Level FlightAware Approximate
Sun 03:36:00 PM 24.5793 -89.9103 145° Southeast  Level FlightAware Approximate
Sun 03:37:00 PM 24.4830 -89.8326 118° Southeast  Level FlightAware Approximate
Sun 03:37:09 PM 24.3330 -89.5290 118° Southeast 482 555 35,000  Level FlightAware ADS-B
Sun 03:37:47 PM 24.3090 -89.4640 112° Southeast 481 554 35,000  Level FlightAware ADS-B
Sun 03:38:24 PM 24.2820 -89.3920 112° Southeast 481 554 35,000  Level FlightAware ADS-B
Sun 03:39:01 PM 24.2560 -89.3210 112° Southeast 481 554 35,000  Level FlightAware ADS-B
Sun 03:39:50 PM 24.1980 -89.1640 112° Southeast 476 548 35,000  Level FlightAware ADS-B
Sun 03:40:26 PM 24.1710 -89.0930 113° Southeast 475 547 35,000  Level FlightAware ADS-B
Sun 03:40:56 PM 24.1450 -89.0230 112° Southeast 476 548 35,000  Level FlightAware ADS-B
Sun 03:41:48 PM 24.1070 -88.9170 111° Southeast 476 548 35,000  Level FlightAware ADS-B
Sun 03:42:32 PM 24.0690 -88.8110 111° Southeast 476 548 35,000  Level FlightAware ADS-B
Sun 03:43:08 PM 24.0440 -88.7420 112° Southeast 476 548 35,000  Level FlightAware ADS-B
Sun 03:43:44 PM 24.0200 -88.6730 111° Southeast 476 548 35,000  Level FlightAware ADS-B
Sun 03:44:20 PM 23.9960 -88.6040 111° Southeast 476 548 35,000  Level FlightAware ADS-B
Sun 03:44:55 PM 23.9520 -88.4820 112° Southeast 476 548 35,000  Level FlightAware ADS-B
Sun 03:45:33 PM 23.9240 -88.4000 110° East 475 547 35,000  Level FlightAware ADS-B
Sun 03:46:11 PM 23.8820 -88.3130 118° Southeast 473 544 35,000  Level FlightAware ADS-B
Sun 03:46:45 PM 23.8380 -88.2460 126° Southeast 473 544 35,000  Level FlightAware ADS-B
Sun 03:47:22 PM 23.7970 -88.1840 126° Southeast 471 542 35,000  Level FlightAware ADS-B
Sun 03:48:01 PM 23.7460 -88.1060 126° Southeast 469 540 35,000  Level FlightAware ADS-B
Sun 03:48:31 PM 23.7150 -88.0580 125° Southeast 469 540 35,000  Level FlightAware ADS-B
Sun 03:49:09 PM 23.6630 -87.9790 126° Southeast 467 537 35,000  Level FlightAware ADS-B
Sun 03:49:42 PM 23.6090 -87.8960 125° Southeast 467 537 35,000  Level FlightAware ADS-B
Sun 03:50:31 PM 23.5640 -87.8100 120° Southeast 466 536 35,000  Level FlightAware ADS-B
Sun 03:50:57 PM 23.5450 -87.7690 117° Southeast 465 535 35,000  Level FlightAware ADS-B
Sun 03:51:40 PM 23.4900 -87.6670 120° Southeast 466 536 35,000  Level FlightAware ADS-B
Sun 03:52:11 PM 23.4580 -87.6120 122° Southeast 466 536 35,000  Level FlightAware ADS-B
Sun 03:52:56 PM 23.4170 -87.5450 124° Southeast 466 536 35,000  Level FlightAware ADS-B
Sun 03:53:36 PM 23.3620 -87.4540 123° Southeast 465 535 35,000  Level FlightAware ADS-B
Sun 03:54:20 PM 23.3080 -87.3660 124° Southeast 466 536 35,000  Level FlightAware ADS-B
Sun 03:55:00 PM 23.2680 -87.2990 123° Southeast 466 536 35,000  Level FlightAware ADS-B
Sun 03:55:36 PM 23.2320 -87.2390 123° Southeast 466 536 35,000  Level FlightAware ADS-B
Sun 03:56:22 PM 23.1630 -87.1270 124° Southeast 467 537 35,000  Level FlightAware ADS-B
Sun 03:57:07 PM 23.0870 -87.0010 123° Southeast 469 540 35,000  Level FlightAware ADS-B
Sun 03:58:02 PM 23.0310 -86.9090 123° Southeast 469 540 35,000  Level FlightAware ADS-B
Sun 03:58:38 PM 22.9800 -86.8260 124° Southeast 470 541 35,000  Level FlightAware ADS-B
Sun 03:59:32 PM 22.9220 -86.7300 123° Southeast 470 541 35,000  Level FlightAware ADS-B
Sun 04:00:18 PM 22.8650 -86.6370 124° Southeast 469 540 35,000  Level FlightAware ADS-B
Sun 04:00:54 PM 22.8280 -86.5770 124° Southeast 469 540 35,000  Level FlightAware ADS-B
Sun 04:01:33 PM 22.7890 -86.5120 123° Southeast 469 540 35,000  Level FlightAware ADS-B
Sun 04:02:09 PM 22.7530 -86.4510 123° Southeast 469 540 35,000  Level FlightAware ADS-B
Sun 04:02:47 PM 22.7150 -86.3870 123° Southeast 469 540 35,000  Level FlightAware ADS-B
Sun 04:03:23 PM 22.6790 -86.3270 123° Southeast 469 540 35,000  Level FlightAware ADS-B
Sun 04:03:59 PM 22.6430 -86.2670 123° Southeast 469 540 35,000  Level FlightAware ADS-B
Sun 04:04:36 PM 22.6050 -86.2050 124° Southeast 469 540 35,000  Level FlightAware ADS-B
Sun 04:05:08 PM 22.5260 -86.0890 126° Southeast 464 534 35,000  Level FlightAware ADS-B
Sun 04:05:48 PM 22.4800 -86.0140 124° Southeast 464 534 35,000  Level FlightAware ADS-B
Sun 04:06:22 PM 22.4290 -85.9200 120° Southeast 466 536 35,000  Level FlightAware ADS-B
Sun 04:06:59 PM 22.3900 -85.8460 120° Southeast 467 537 35,000  Level FlightAware ADS-B
Sun 04:07:35 PM 22.3570 -85.7820 119° Southeast 467 537 35,000  Level FlightAware ADS-B
Sun 04:08:12 PM 22.3240 -85.7170 119° Southeast 467 537 35,000  Level FlightAware ADS-B
Sun 04:08:52 PM 22.2860 -85.6460 120° Southeast 467 537 35,000  Level FlightAware ADS-B
Sun 04:09:32 PM 22.2400 -85.5590 120° Southeast 468 539 35,000  Level FlightAware ADS-B
Sun 04:10:15 PM 22.1990 -85.4790 119° Southeast 468 539 35,000  Level FlightAware ADS-B
Sun 04:10:53 PM 22.1520 -85.3910 120° Southeast 466 536 35,000  Level FlightAware ADS-B
Sun 04:11:39 PM 22.1070 -85.3060 120° Southeast 467 537 35,000  Level FlightAware ADS-B
Sun 04:12:19 PM 22.0720 -85.2370 119° Southeast 467 537 35,000  Level FlightAware ADS-B
Sun 04:12:55 PM 22.0400 -85.1740 119° Southeast 467 537 35,000  Level FlightAware ADS-B
Sun 04:13:40 PM 21.9800 -85.0650 121° Southeast 467 537 35,000  Level FlightAware ADS-B
Sun 04:14:16 PM 21.9480 -85.0030 119° Southeast 467 537 35,000  Level FlightAware ADS-B
Sun 04:14:52 PM 21.9160 -84.9410 119° Southeast 467 537 35,000  Level FlightAware ADS-B
Sun 04:15:20 PM 21.8670 -84.8540 121° Southeast 471 542 35,000  Level FlightAware ADS-B
Sun 04:15:59 PM 21.8250 -84.7740 119° Southeast 472 543 35,000  Level FlightAware ADS-B
Sun 04:16:37 PM 21.7910 -84.7070 119° Southeast 472 543 35,000  Level FlightAware ADS-B
Sun 04:17:13 PM 21.7530 -84.6360 120° Southeast 472 543 35,000  Level FlightAware ADS-B
Sun 04:17:49 PM 21.7200 -84.5730 119° Southeast 472 543 35,000  Level FlightAware ADS-B
Sun 04:18:41 PM 21.6540 -84.4500 120° Southeast 477 549 35,000  Level FlightAware ADS-B
Sun 04:19:17 PM 21.6210 -84.3860 119° Southeast 477 549 35,000  Level FlightAware ADS-B
Sun 04:19:53 PM 21.5890 -84.3230 119° Southeast 477 549 35,000  Level FlightAware ADS-B
Sun 04:20:29 PM 21.5560 -84.2590 119° Southeast 477 549 35,000  Level FlightAware ADS-B
Sun 04:21:06 PM 21.5220 -84.1940 119° Southeast 477 549 35,000  Level FlightAware ADS-B
Sun 04:21:42 PM 21.4890 -84.1310 119° Southeast 477 549 35,000  Level FlightAware ADS-B
Sun 04:22:18 PM 21.4570 -84.0670 118° Southeast 477 549 35,000  Level FlightAware ADS-B
Sun 04:24:00 PM 21.3710 -83.8691 115° Southeast  Level FlightAware Approximate
Sun 04:24:15 PM 21.2770 -83.7470 115° Southeast 476 548 35,000  Level FlightAware ADS-B
Sun 04:24:56 PM 21.2400 -83.6750 119° Southeast 476 548 35,000  Level FlightAware ADS-B
Sun 04:25:31 PM 21.2080 -83.6140 119° Southeast 476 548 35,000  Level FlightAware ADS-B
Sun 04:26:07 PM 21.1750 -83.5500 119° Southeast 476 548 35,000  Level FlightAware ADS-B
Sun 04:26:43 PM 21.1420 -83.4870 119° Southeast 476 548 35,000  Level FlightAware ADS-B
Sun 04:27:19 PM 21.1100 -83.4240 119° Southeast 476 548 35,000  Level FlightAware ADS-B
Sun 04:27:56 PM 21.0760 -83.3590 119° Southeast 476 548 35,000  Level FlightAware ADS-B
Sun 04:28:32 PM 21.0440 -83.2960 119° Southeast 476 548 35,000  Level FlightAware ADS-B
Sun 04:29:08 PM 21.0110 -83.2330 119° Southeast 476 548 35,000  Level FlightAware ADS-B
Sun 04:29:42 PM 20.9800 -83.1730 119° Southeast 476 548 35,000  Level FlightAware ADS-B
Sun 04:30:19 PM 20.9460 -83.1080 119° Southeast 476 548 35,000  Level FlightAware ADS-B
Sun 04:30:55 PM 20.9140 -83.0450 119° Southeast 476 548 35,000  Level FlightAware ADS-B
Sun 04:31:31 PM 20.8810 -82.9820 119° Southeast 476 548 35,000  Level FlightAware ADS-B
Sun 04:32:07 PM 20.8480 -82.9190 119° Southeast 476 548 35,000  Level FlightAware ADS-B
Sun 04:32:45 PM 20.8140 -82.8520 118° Southeast 476 548 35,000  Level FlightAware ADS-B
Sun 04:33:19 PM 20.7830 -82.7930 119° Southeast 476 548 35,000  Level FlightAware ADS-B
Sun 04:33:55 PM 20.7500 -82.7300 119° Southeast 476 548 35,000  Level FlightAware ADS-B
Sun 04:36:00 PM 20.6555 -82.4760 112° Southeast  Level FlightAware Approximate
Sun 04:37:00 PM 20.6015 -82.3531 118° Southeast  Level FlightAware Approximate
Sun 04:38:00 PM 20.5337 -82.2439 124° Southeast  Level FlightAware Approximate
Sun 04:39:00 PM 20.4733 -82.1299 118° Southeast  Level FlightAware Approximate
Sun 04:40:00 PM 20.4123 -82.0163 121° Southeast  Level FlightAware Approximate
Sun 04:41:00 PM 20.3492 -81.9040 121° Southeast  Level FlightAware Approximate
Sun 04:42:00 PM 20.2859 -81.7919 121° Southeast  Level FlightAware Approximate
Sun 04:43:00 PM 20.2222 -81.6801 121° Southeast  Level FlightAware Approximate
Sun 04:44:00 PM 20.1584 -81.5683 121° Southeast  Level FlightAware Approximate
Sun 04:45:00 PM 20.0945 -81.4567 121° Southeast  Level FlightAware Approximate
Sun 04:46:00 PM 20.0308 -81.3450 118° Southeast  Level FlightAware Approximate
Sun 04:47:00 PM 19.9591 -81.2735 189° South  Level FlightAware Approximate
Sun 04:48:00 PM 19.8372 -81.2882 184° South  Level FlightAware Approximate
Sun 04:49:00 PM 19.7148 -81.2976 184° South  Level FlightAware Approximate
Sun 04:50:00 PM 19.5925 -81.3091 185° South  Level FlightAware Approximate
Sun 04:51:00 PM 19.4701 -81.3167 180° South  Level FlightAware Approximate
Sun 04:52:00 PM 19.3509 -81.3333 180° South  Level FlightAware Approximate
Sun 04:53:00 PM 19.2928 -81.3577 191° South  Level Estimated
Sun 04:54:00 PM 19.2928 -81.3577 191° South  Level Estimated
Sun 04:55:00 PM 19.2928 -81.3577 191° South  Level Estimated
Sun 04:56:00 PM 19.2928 -81.3577 191° South  Level Estimated
Sun 04:57:00 PM 19.2928 -81.3577 191° South  Level Estimated
Sun 04:58:00 PM 19.2928 -81.3577 191° South  Level Estimated

Login

Don't have an account? Register now (free) for customized features, flight alerts, and more!